Terminal Aerodrome Forecast
Issued by NWS

Home | Current Version | Previous Version | Text Only | Print | Product List | Glossary On
Versions: 1 2 3 4 5 6 7 8 9 10 11 12 13 14 15 16 17 18 19 20 21 22 23 24 25 26 27 28 29 30 31 32 33 34
000
FTAK31 PANC 162332 AAA
TAFASN
TAF AMD
PASN 162332Z 1700/1718 18010KT P6SM FEW025 BKN110
     FM170300 13015KT P6SM SCT020 BKN040
     FM170600 09020G30KT P6SM -RA BKN020
     FM171200 05018G25KT P6SM -RA BKN025=

USA.gov is the U.S. government's official web portal to all federal, state and local government web resources and services.